createdAt,value
2019-01-31T00:01:31.098Z,14.33
2019-01-31T00:04:54.160Z,13.10
2019-01-31T00:07:48.688Z,12.33
2019-01-31T00:10:37.872Z,12.77
2019-01-31T00:13:31.102Z,12.77
2019-01-31T00:16:26.396Z,12.20
2019-01-31T00:19:27.474Z,11.87
2019-01-31T00:22:30.271Z,12.90
2019-01-31T00:25:25.765Z,12.97
2019-01-31T00:28:11.068Z,13.13
2019-01-31T00:30:57.307Z,11.37
2019-01-31T00:34:14.736Z,12.30
2019-01-31T00:36:59.981Z,12.80
2019-01-31T00:40:00.381Z,12.33
2019-01-31T00:43:11.697Z,11.97
2019-01-31T00:46:22.293Z,13.00
2019-01-31T00:49:14.698Z,12.43
2019-01-31T00:52:36.838Z,13.67
2019-01-31T00:55:47.580Z,13.17
2019-01-31T00:58:51.626Z,13.30
2019-01-31T01:01:34.257Z,13.17
2019-01-31T01:04:51.170Z,13.47
2019-01-31T01:07:43.902Z,14.80
2019-01-31T01:10:28.195Z,14.67
2019-01-31T01:13:22.529Z,14.70
2019-01-31T01:16:22.776Z,15.87
2019-01-31T01:19:26.272Z,16.20
2019-01-31T01:22:46.329Z,16.57
2019-01-31T01:25:42.583Z,17.17
2019-01-31T01:28:21.740Z,16.47
2019-01-31T01:31:32.851Z,17.87
2019-01-31T01:34:32.001Z,17.23
2019-01-31T01:37:21.688Z,20.60
2019-01-31T01:40:35.527Z,18.30
2019-01-31T01:43:26.024Z,17.03
2019-01-31T01:46:23.680Z,17.63
2019-01-31T01:49:18.351Z,18.27
2019-01-31T01:52:09.808Z,19.60
2019-01-31T01:55:15.468Z,20.17
2019-01-31T01:58:35.659Z,18.53
2019-01-31T02:01:27.164Z,18.60
2019-01-31T02:04:24.020Z,19.17
2019-01-31T02:07:34.389Z,18.97
2019-01-31T02:10:23.481Z,19.30
2019-01-31T02:13:43.246Z,19.27
2019-01-31T02:16:40.499Z,18.63
2019-01-31T02:19:57.361Z,18.83
2019-01-31T02:22:41.414Z,18.73
2019-01-31T02:25:18.294Z,19.57
2019-01-31T02:28:40.092Z,19.37
2019-01-31T02:31:42.638Z,18.30
2019-01-31T02:34:47.281Z,17.60
2019-01-31T02:37:37.444Z,18.03
2019-01-31T02:40:21.632Z,19.07
2019-01-31T02:42:56.765Z,18.50
2019-01-31T02:46:07.974Z,19.70
2019-01-31T02:48:55.774Z,17.83
2019-01-31T02:52:09.756Z,17.93
2019-01-31T02:54:47.837Z,17.77
2019-01-31T02:57:50.856Z,17.23
2019-01-31T03:00:41.941Z,17.53
2019-01-31T03:03:35.421Z,18.07
2019-01-31T03:06:58.386Z,17.57
2019-01-31T03:09:54.582Z,16.93
2019-01-31T03:12:41.632Z,17.13
2019-01-31T03:15:17.081Z,16.97
2019-01-31T03:18:05.314Z,17.87
2019-01-31T03:21:31.418Z,16.90
2019-01-31T03:24:16.292Z,17.27
2019-01-31T03:26:58.019Z,16.97
2019-01-31T03:29:51.679Z,15.57
2019-01-31T03:32:45.989Z,16.67
2019-01-31T03:35:43.357Z,15.73
2019-01-31T03:38:44.089Z,16.30
2019-01-31T03:41:37.708Z,15.00
2019-01-31T03:44:33.488Z,15.03
2019-01-31T03:47:24.849Z,13.67
2019-01-31T03:50:07.199Z,13.93
2019-01-31T03:53:07.172Z,14.47
2019-01-31T03:56:15.708Z,15.67
2019-01-31T03:59:26.563Z,14.13
2019-01-31T04:02:40.861Z,13.77
2019-01-31T04:05:25.412Z,15.17
2019-01-31T04:07:54.695Z,14.60
2019-01-31T04:10:24.014Z,14.60
2019-01-31T04:12:53.393Z,15.40
2019-01-31T04:15:22.640Z,14.30
2019-01-31T04:17:52.020Z,14.27
2019-01-31T04:20:21.261Z,13.87
2019-01-31T04:22:50.634Z,14.00
2019-01-31T04:25:19.979Z,13.23
2019-01-31T04:27:49.262Z,13.57
2019-01-31T04:30:18.510Z,13.40
2019-01-31T04:32:47.827Z,14.90
2019-01-31T04:35:17.096Z,13.73
2019-01-31T04:37:46.351Z,14.30
2019-01-31T04:40:15.713Z,14.43
2019-01-31T04:42:45.031Z,13.83
2019-01-31T04:45:14.346Z,14.43
2019-01-31T04:47:43.628Z,14.47
2019-01-31T04:50:13.926Z,14.23
2019-01-31T04:52:43.233Z,13.63
2019-01-31T04:55:12.549Z,13.90
2019-01-31T04:57:41.829Z,13.97
2019-01-31T05:00:13.940Z,13.43
2019-01-31T05:02:43.237Z,14.03
2019-01-31T05:05:12.507Z,13.67
2019-01-31T05:07:41.801Z,14.40
2019-01-31T05:10:12.139Z,14.27
2019-01-31T05:12:41.436Z,14.77
2019-01-31T05:15:12.509Z,14.87
2019-01-31T05:17:41.783Z,12.83
2019-01-31T05:20:13.997Z,14.43
2019-01-31T05:22:43.277Z,13.90
2019-01-31T05:25:13.422Z,12.50
2019-01-31T05:27:42.687Z,11.90
2019-01-31T05:30:13.518Z,12.37
2019-01-31T05:32:42.917Z,11.17
2019-01-31T05:35:12.446Z,12.83
2019-01-31T05:37:41.844Z,12.53
2019-01-31T05:40:12.992Z,13.53
2019-01-31T05:42:42.358Z,11.97
2019-01-31T05:45:13.578Z,12.23
2019-01-31T05:47:42.902Z,11.97
2019-01-31T05:50:14.490Z,11.00
2019-01-31T05:52:43.871Z,11.47
2019-01-31T05:55:13.714Z,12.73
2019-01-31T05:57:43.081Z,13.37
2019-01-31T06:00:15.798Z,12.40
2019-01-31T06:02:45.281Z,13.03
2019-01-31T06:05:14.513Z,11.97
2019-01-31T06:07:43.814Z,12.90
2019-01-31T06:10:13.171Z,12.73
2019-01-31T06:12:42.496Z,13.10
2019-01-31T06:15:13.744Z,13.67
2019-01-31T06:17:43.046Z,13.73
2019-01-31T06:20:15.112Z,12.70
2019-01-31T06:22:44.439Z,13.03
2019-01-31T06:25:13.667Z,13.63
2019-01-31T06:27:43.041Z,13.43
2019-01-31T06:30:14.080Z,13.50
2019-01-31T06:32:43.377Z,13.10
2019-01-31T06:35:12.741Z,13.17
2019-01-31T06:37:42.063Z,12.63
2019-01-31T06:40:14.029Z,12.83
2019-01-31T06:42:43.356Z,11.77
2019-01-31T06:45:15.190Z,12.50
2019-01-31T06:47:44.588Z,12.60
2019-01-31T06:50:13.980Z,13.83
2019-01-31T06:52:43.534Z,13.00
2019-01-31T06:55:12.949Z,13.60
2019-01-31T06:57:42.304Z,10.60
2019-01-31T07:00:14.576Z,13.00
2019-01-31T07:02:43.980Z,13.47
2019-01-31T07:05:13.401Z,13.50
2019-01-31T07:07:42.783Z,13.17
2019-01-31T07:10:23.987Z,12.97
2019-01-31T07:12:53.296Z,12.07
2019-01-31T07:15:22.657Z,11.57
2019-01-31T07:17:51.930Z,11.93
2019-01-31T07:20:21.272Z,12.70
2019-01-31T07:22:50.551Z,13.03
2019-01-31T07:25:21.510Z,12.10
2019-01-31T07:27:50.787Z,11.77
2019-01-31T07:30:20.361Z,12.80
2019-01-31T07:32:49.798Z,13.00
2019-01-31T07:35:19.124Z,12.13
2019-01-31T07:37:48.399Z,11.70
2019-01-31T07:40:19.203Z,11.87
2019-01-31T07:42:48.498Z,11.53
2019-01-31T07:45:20.651Z,12.20
2019-01-31T07:47:50.034Z,11.90
2019-01-31T07:50:19.451Z,11.87
2019-01-31T07:52:48.816Z,11.10
2019-01-31T07:55:18.349Z,11.10
2019-01-31T07:57:47.729Z,10.17
2019-01-31T08:00:17.465Z,10.30
2019-01-31T08:02:46.844Z,10.33
2019-01-31T08:05:17.628Z,10.90
2019-01-31T08:07:47.090Z,10.20
2019-01-31T08:10:18.973Z,10.53
2019-01-31T08:12:48.374Z,9.73
2019-01-31T08:15:18.089Z,9.33
2019-01-31T08:17:47.508Z,10.47
2019-01-31T08:20:16.962Z,9.83
2019-01-31T08:22:46.245Z,9.20
2019-01-31T08:25:17.551Z,9.23
2019-01-31T08:27:46.898Z,9.23
2019-01-31T08:30:21.776Z,9.23
2019-01-31T08:32:51.128Z,9.30
2019-01-31T08:35:20.459Z,8.47
2019-01-31T08:37:49.789Z,8.60
2019-01-31T08:40:19.262Z,8.23
2019-01-31T08:42:48.574Z,8.80
2019-01-31T08:45:17.830Z,9.77
2019-01-31T08:47:47.302Z,8.67
2019-01-31T08:50:18.613Z,9.83
2019-01-31T08:52:47.919Z,9.50
2019-01-31T08:55:17.177Z,8.93
2019-01-31T08:57:47.570Z,9.20
2019-01-31T09:00:23.694Z,8.97
2019-01-31T09:02:52.988Z,8.97
2019-01-31T09:05:22.674Z,9.03
2019-01-31T09:07:52.028Z,9.23
2019-01-31T09:10:23.632Z,10.07
2019-01-31T09:12:52.990Z,8.50
2019-01-31T09:15:23.700Z,9.10
2019-01-31T09:17:52.989Z,9.30
2019-01-31T09:20:28.774Z,9.00
2019-01-31T09:23:21.484Z,9.83
2019-01-31T09:26:18.808Z,8.97
2019-01-31T09:29:31.194Z,8.60
2019-01-31T09:32:38.051Z,10.63
2019-01-31T09:35:30.952Z,10.30
2019-01-31T09:38:33.917Z,9.13
2019-01-31T09:41:33.839Z,9.23
2019-01-31T09:44:30.628Z,8.43
2019-01-31T09:47:42.477Z,8.97
2019-01-31T09:50:36.097Z,8.93
2019-01-31T09:53:34.450Z,8.43
2019-01-31T09:56:36.508Z,9.00
2019-01-31T09:59:53.817Z,7.80
2019-01-31T10:03:20.258Z,7.80
2019-01-31T10:06:27.359Z,7.30
2019-01-31T10:09:59.377Z,6.83
2019-01-31T10:13:12.075Z,6.67
2019-01-31T10:16:03.675Z,6.13
2019-01-31T10:19:23.306Z,6.87
2019-01-31T10:22:03.327Z,6.30
2019-01-31T10:25:09.014Z,6.60
2019-01-31T10:28:14.857Z,5.63
2019-01-31T10:31:17.596Z,5.60
2019-01-31T10:34:31.948Z,5.70
2019-01-31T10:37:28.742Z,5.80
2019-01-31T10:40:21.437Z,5.70
2019-01-31T10:43:41.362Z,5.70
2019-01-31T10:46:41.707Z,5.40
2019-01-31T10:49:58.672Z,4.83
2019-01-31T10:53:06.783Z,4.80
2019-01-31T10:55:54.343Z,4.90
2019-01-31T10:58:58.047Z,5.20
2019-01-31T11:02:21.386Z,4.87
2019-01-31T11:05:22.497Z,5.53
2019-01-31T11:08:23.896Z,5.17
2019-01-31T11:11:02.118Z,5.13
2019-01-31T11:14:12.805Z,5.77
2019-01-31T11:17:16.982Z,5.57
2019-01-31T11:20:14.715Z,5.67
2019-01-31T11:23:17.350Z,5.53
2019-01-31T11:26:30.281Z,5.17
2019-01-31T11:29:39.701Z,5.27
2019-01-31T11:32:45.402Z,4.93
2019-01-31T11:35:54.828Z,5.77
2019-01-31T11:38:52.978Z,9.70
2019-01-31T11:41:54.066Z,4.80
2019-01-31T11:44:57.725Z,4.00
2019-01-31T11:47:49.847Z,3.80
2019-01-31T11:50:46.961Z,3.77
2019-01-31T11:53:33.010Z,3.77
2019-01-31T11:56:38.988Z,8.93
2019-01-31T11:59:08.305Z,5.60
2019-01-31T12:01:37.834Z,3.47
2019-01-31T12:04:12.494Z,3.50
2019-01-31T12:06:41.841Z,3.43
2019-01-31T12:09:21.909Z,3.60
2019-01-31T12:11:51.850Z,3.53
2019-01-31T12:14:21.162Z,3.17
2019-01-31T12:16:50.563Z,6.07
2019-01-31T12:19:19.781Z,3.53
2019-01-31T12:21:49.105Z,3.73
2019-01-31T12:24:18.410Z,3.30
2019-01-31T12:26:47.704Z,3.50
2019-01-31T12:29:17.063Z,3.17
2019-01-31T12:31:46.343Z,3.15
2019-01-31T12:34:15.640Z,3.27
2019-01-31T12:36:44.922Z,3.27
2019-01-31T12:39:14.197Z,3.25
2019-01-31T12:41:43.513Z,3.20
2019-01-31T12:44:12.783Z,3.35
2019-01-31T12:46:42.061Z,2.92
2019-01-31T12:49:11.360Z,2.90
2019-01-31T12:51:40.620Z,2.62
2019-01-31T12:54:09.906Z,2.75
2019-01-31T12:56:39.348Z,2.20
2019-01-31T12:59:08.655Z,2.55
2019-01-31T13:01:37.969Z,2.12
2019-01-31T13:04:09.166Z,2.30
2019-01-31T13:06:38.509Z,1.80
2019-01-31T13:09:09.537Z,2.45
2019-01-31T13:11:39.004Z,2.30
2019-01-31T13:14:08.307Z,1.93
2019-01-31T13:16:37.585Z,2.80
2019-01-31T13:19:06.906Z,2.20
2019-01-31T13:21:36.244Z,2.27
2019-01-31T13:24:05.622Z,2.13
2019-01-31T13:26:34.921Z,2.27
2019-01-31T13:29:04.561Z,2.13
2019-01-31T13:31:33.833Z,2.50
2019-01-31T13:34:03.094Z,1.80
2019-01-31T13:36:32.544Z,2.07
2019-01-31T13:39:01.977Z,1.60
2019-01-31T13:41:31.180Z,1.70
2019-01-31T13:44:00.636Z,1.90
2019-01-31T13:46:29.960Z,1.70
2019-01-31T13:48:59.219Z,1.73
2019-01-31T13:51:28.536Z,1.80
2019-01-31T13:53:57.876Z,1.60
2019-01-31T13:56:27.108Z,1.77
2019-01-31T13:58:56.390Z,1.82
2019-01-31T14:01:25.740Z,1.70
2019-01-31T14:03:55.008Z,1.87
2019-01-31T14:06:24.295Z,1.80
2019-01-31T14:08:53.612Z,1.90
2019-01-31T14:11:22.941Z,1.87
2019-01-31T14:13:52.230Z,1.87
2019-01-31T14:16:21.530Z,1.77
2019-01-31T14:18:53.395Z,1.77
2019-01-31T14:21:20.164Z,1.40
2019-01-31T14:23:49.439Z,1.80
2019-01-31T14:26:18.713Z,1.57
2019-01-31T14:28:48.179Z,1.73
2019-01-31T14:31:17.352Z,1.70
2019-01-31T14:33:46.609Z,1.93
2019-01-31T14:36:15.881Z,1.93
2019-01-31T14:38:45.142Z,1.73
2019-01-31T14:41:16.560Z,1.90
2019-01-31T14:43:46.005Z,1.60
2019-01-31T14:46:13.070Z,1.30
2019-01-31T14:48:42.342Z,1.27
2019-01-31T14:51:11.606Z,1.43
2019-01-31T14:53:41.118Z,1.50
2019-01-31T14:56:10.384Z,1.50
2019-01-31T14:58:39.677Z,1.60
2019-01-31T15:01:08.967Z,1.43
2019-01-31T15:03:38.371Z,1.40
2019-01-31T15:06:07.663Z,1.77
2019-01-31T15:08:36.984Z,1.23
2019-01-31T15:11:06.302Z,1.50
2019-01-31T15:13:35.621Z,1.70
2019-01-31T15:16:05.038Z,1.60
2019-01-31T15:18:34.380Z,1.30
2019-01-31T15:21:03.692Z,1.60
2019-01-31T15:23:32.958Z,1.40
2019-01-31T15:26:02.315Z,1.60
2019-01-31T15:28:31.583Z,1.60
2019-01-31T15:31:00.923Z,1.50
2019-01-31T15:33:30.195Z,1.57
2019-01-31T15:35:59.465Z,1.50
2019-01-31T15:38:28.826Z,1.50
2019-01-31T15:40:58.088Z,1.60
2019-01-31T15:43:27.442Z,1.50
2019-01-31T15:45:56.742Z,1.70
2019-01-31T15:48:26.255Z,1.53
2019-01-31T15:50:55.550Z,1.33
2019-01-31T15:53:24.880Z,1.83
2019-01-31T15:55:54.327Z,1.90
2019-01-31T15:58:23.688Z,1.50
2019-01-31T16:00:55.121Z,1.63
2019-01-31T16:03:25.673Z,1.63
2019-01-31T16:05:54.887Z,1.50
2019-01-31T16:08:24.680Z,1.50
2019-01-31T16:10:54.048Z,2.03
2019-01-31T16:13:23.332Z,1.80
2019-01-31T16:15:52.758Z,2.17
2019-01-31T16:18:22.038Z,2.60
2019-01-31T16:20:51.310Z,2.30
2019-01-31T16:23:20.664Z,2.70
2019-01-31T16:25:49.963Z,2.20
2019-01-31T16:28:19.246Z,4.40
2019-01-31T16:30:48.618Z,5.03
2019-01-31T16:33:18.037Z,5.20
2019-01-31T16:35:48.613Z,3.73
2019-01-31T16:38:17.962Z,7.57
2019-01-31T16:40:47.587Z,8.93
2019-01-31T16:43:16.874Z,5.70
2019-01-31T16:45:46.399Z,4.20
2019-01-31T16:48:15.440Z,3.93
2019-01-31T16:50:44.722Z,4.47
2019-01-31T16:53:14.009Z,4.10
2019-01-31T16:55:43.252Z,4.30
2019-01-31T16:58:12.614Z,3.93
2019-01-31T17:00:42.003Z,4.23
2019-01-31T17:03:13.211Z,4.43
2019-01-31T17:05:40.598Z,4.10
2019-01-31T17:08:09.864Z,4.53
2019-01-31T17:10:39.262Z,4.10
2019-01-31T17:13:08.532Z,4.07
2019-01-31T17:15:37.832Z,4.47
2019-01-31T17:18:07.697Z,4.47
2019-01-31T17:20:39.535Z,4.80
2019-01-31T17:23:08.856Z,3.87
2019-01-31T17:25:38.174Z,3.70
2019-01-31T17:28:07.484Z,4.10
2019-01-31T17:30:36.884Z,4.17
2019-01-31T17:33:06.263Z,8.57
2019-01-31T17:35:35.600Z,8.60
2019-01-31T17:38:04.881Z,6.23
2019-01-31T17:40:36.556Z,4.80
2019-01-31T17:43:06.640Z,3.80
2019-01-31T17:45:36.228Z,4.23
2019-01-31T17:48:06.306Z,4.80
2019-01-31T17:50:35.686Z,4.10
2019-01-31T17:53:04.986Z,4.23
2019-01-31T17:55:34.424Z,3.83
2019-01-31T17:58:03.708Z,4.27
2019-01-31T18:00:51.802Z,3.70
2019-01-31T18:03:21.114Z,3.47
2019-01-31T18:05:50.395Z,3.77
2019-01-31T18:08:19.808Z,3.53
2019-01-31T18:10:49.145Z,3.53
2019-01-31T18:13:18.452Z,3.67
2019-01-31T18:15:55.374Z,3.67
2019-01-31T18:18:24.723Z,3.67
2019-01-31T18:20:54.048Z,3.20
2019-01-31T18:23:23.590Z,10.93
2019-01-31T18:25:52.990Z,8.00
2019-01-31T18:28:22.400Z,4.00
2019-01-31T18:30:51.824Z,3.80
2019-01-31T18:33:21.163Z,4.03
2019-01-31T18:35:50.521Z,3.70
2019-01-31T18:38:19.953Z,3.80
2019-01-31T18:40:49.312Z,3.13
2019-01-31T18:43:18.641Z,3.50
2019-01-31T18:45:53.553Z,3.53
2019-01-31T18:48:17.261Z,3.70
2019-01-31T18:50:46.590Z,3.60
2019-01-31T18:53:15.922Z,3.43
2019-01-31T18:55:45.295Z,4.00
2019-01-31T18:58:14.680Z,3.57
2019-01-31T19:00:46.618Z,3.50
2019-01-31T19:03:15.918Z,3.43
2019-01-31T19:05:45.263Z,4.17
2019-01-31T19:08:14.679Z,4.43
2019-01-31T19:10:44.088Z,3.83
2019-01-31T19:13:14.284Z,3.70
2019-01-31T19:15:46.293Z,3.87
2019-01-31T19:18:13.040Z,3.93
2019-01-31T19:20:42.509Z,3.50
2019-01-31T19:23:11.876Z,4.13
2019-01-31T19:25:41.288Z,3.80
2019-01-31T19:28:13.176Z,3.87
2019-01-31T19:30:40.851Z,3.47
2019-01-31T19:33:10.279Z,3.40
2019-01-31T19:35:39.630Z,3.73
2019-01-31T19:38:09.908Z,3.30
2019-01-31T19:40:41.736Z,3.20
2019-01-31T19:43:11.092Z,4.00
2019-01-31T19:45:50.556Z,8.27
2019-01-31T19:48:19.823Z,4.20
2019-01-31T19:50:49.144Z,3.23
2019-01-31T19:53:18.502Z,3.20
2019-01-31T19:55:47.789Z,2.90
2019-01-31T19:58:17.100Z,3.50
2019-01-31T20:00:46.747Z,2.73
2019-01-31T20:03:16.189Z,2.83
2019-01-31T20:05:45.394Z,2.50
2019-01-31T20:08:14.816Z,3.00
2019-01-31T20:10:44.178Z,3.07
2019-01-31T20:13:13.607Z,3.13
2019-01-31T20:15:42.943Z,2.70
2019-01-31T20:18:12.334Z,2.80
2019-01-31T20:20:42.930Z,6.23
2019-01-31T20:23:13.933Z,7.00
2019-01-31T20:25:43.456Z,3.90
2019-01-31T20:28:12.839Z,3.20
2019-01-31T20:30:42.299Z,2.93
2019-01-31T20:33:11.575Z,3.13
2019-01-31T20:35:40.867Z,3.27
2019-01-31T20:38:10.184Z,3.40
2019-01-31T20:40:41.207Z,3.40
2019-01-31T20:43:10.587Z,3.30
2019-01-31T20:45:39.910Z,2.83
2019-01-31T20:48:09.635Z,3.13
2019-01-31T20:50:40.959Z,3.10
2019-01-31T20:53:10.780Z,3.60
2019-01-31T20:55:40.108Z,4.63
2019-01-31T20:58:09.458Z,5.97
2019-01-31T21:00:43.716Z,3.90
2019-01-31T21:03:13.137Z,4.00
2019-01-31T21:05:43.021Z,3.00
2019-01-31T21:08:13.702Z,3.40
2019-01-31T21:10:43.382Z,3.47
2019-01-31T21:13:12.747Z,3.07
2019-01-31T21:15:42.061Z,3.60
2019-01-31T21:18:11.348Z,3.30
2019-01-31T21:20:40.807Z,3.07
2019-01-31T21:23:10.186Z,3.17
2019-01-31T21:25:39.538Z,3.63
2019-01-31T21:28:08.851Z,3.37
2019-01-31T21:30:42.304Z,3.47
2019-01-31T21:33:11.660Z,3.27
2019-01-31T21:35:41.377Z,3.43
2019-01-31T21:38:10.684Z,3.50
2019-01-31T21:40:40.360Z,3.87
2019-01-31T21:43:09.783Z,3.53
2019-01-31T21:45:39.329Z,3.27
2019-01-31T21:48:10.537Z,3.13
2019-01-31T21:50:39.976Z,3.20
2019-01-31T21:53:09.744Z,3.27
2019-01-31T21:55:39.105Z,3.30
2019-01-31T21:58:08.425Z,3.40
2019-01-31T22:00:37.762Z,3.33
2019-01-31T22:03:07.938Z,7.03
2019-01-31T22:05:37.251Z,6.87
2019-01-31T22:08:06.804Z,3.80
2019-01-31T22:10:36.152Z,3.43
2019-01-31T22:13:05.857Z,3.63
2019-01-31T22:15:35.244Z,3.53
2019-01-31T22:18:05.531Z,3.67
2019-01-31T22:20:34.918Z,2.83
2019-01-31T22:23:04.375Z,3.43
2019-01-31T22:25:33.696Z,3.97
2019-01-31T22:28:03.083Z,4.00
2019-01-31T22:30:34.428Z,3.23
2019-01-31T22:33:03.762Z,3.33
2019-01-31T22:35:33.253Z,2.80
2019-01-31T22:38:02.566Z,3.17
2019-01-31T22:40:31.876Z,3.17
2019-01-31T22:43:01.288Z,3.37
2019-01-31T22:45:30.602Z,2.90
2019-01-31T22:48:02.431Z,3.30
2019-01-31T22:50:32.713Z,3.33
2019-01-31T22:53:06.115Z,3.80
2019-01-31T22:55:35.367Z,4.03
2019-01-31T22:58:05.264Z,4.30
2019-01-31T23:01:16.741Z,4.50
2019-01-31T23:03:46.050Z,4.30
2019-01-31T23:06:16.317Z,6.17
2019-01-31T23:08:45.620Z,5.07
2019-01-31T23:11:14.968Z,4.60
2019-01-31T23:13:44.333Z,4.43
2019-01-31T23:16:13.671Z,4.17
2019-01-31T23:18:43.061Z,4.13
2019-01-31T23:21:12.321Z,4.17
2019-01-31T23:23:41.662Z,4.70
2019-01-31T23:26:10.911Z,4.50
2019-01-31T23:28:40.234Z,4.50
2019-01-31T23:31:09.485Z,3.90
2019-01-31T23:33:41.091Z,4.13
2019-01-31T23:36:08.110Z,4.30
2019-01-31T23:38:37.411Z,4.10
2019-01-31T23:41:06.740Z,4.30
2019-01-31T23:43:36.025Z,4.73
2019-01-31T23:46:05.583Z,4.40
2019-01-31T23:48:34.825Z,4.70
2019-01-31T23:51:04.090Z,4.33
2019-01-31T23:53:33.379Z,4.27
2019-01-31T23:56:02.660Z,4.97
2019-01-31T23:58:32.174Z,4.23
